sensor_id;sensor_type;location;lat;lon;timestamp;temperature;humidity
21047;DHT22;10682;50.874;3.656;2023-04-01T00:01:06;10.10;99.90
21047;DHT22;10682;50.874;3.656;2023-04-01T00:03:34;10.10;99.90
21047;DHT22;10682;50.874;3.656;2023-04-01T00:06:02;10.10;99.90
21047;DHT22;10682;50.874;3.656;2023-04-01T00:08:29;10.10;99.90
21047;DHT22;10682;50.874;3.656;2023-04-01T00:10:57;10.10;99.90
21047;DHT22;10682;50.874;3.656;2023-04-01T00:13:25;10.10;99.90
21047;DHT22;10682;50.874;3.656;2023-04-01T00:15:54;10.00;99.90
21047;DHT22;10682;50.874;3.656;2023-04-01T00:18:23;10.10;99.90
21047;DHT22;10682;50.874;3.656;2023-04-01T00:20:52;10.10;99.90
21047;DHT22;10682;50.874;3.656;2023-04-01T00:23:19;10.10;99.90
21047;DHT22;10682;50.874;3.656;2023-04-01T00:25:47;10.00;99.90
21047;DHT22;10682;50.874;3.656;2023-04-01T00:28:18;10.00;99.90
21047;DHT22;10682;50.874;3.656;2023-04-01T00:30:47;10.00;99.90
21047;DHT22;10682;50.874;3.656;2023-04-01T00:33:14;10.10;99.90
21047;DHT22;10682;50.874;3.656;2023-04-01T00:35:42;10.10;99.90
21047;DHT22;10682;50.874;3.656;2023-04-01T00:38:09;10.20;99.90
21047;DHT22;10682;50.874;3.656;2023-04-01T00:40:43;10.10;99.90
21047;DHT22;10682;50.874;3.656;2023-04-01T00:43:17;10.10;99.90
21047;DHT22;10682;50.874;3.656;2023-04-01T00:45:49;10.20;99.90
21047;DHT22;10682;50.874;3.656;2023-04-01T00:48:22;10.10;99.90
21047;DHT22;10682;50.874;3.656;2023-04-01T00:50:56;10.10;99.90
21047;DHT22;10682;50.874;3.656;2023-04-01T00:53:31;10.10;99.90
21047;DHT22;10682;50.874;3.656;2023-04-01T00:56:12;10.10;99.90
21047;DHT22;10682;50.874;3.656;2023-04-01T00:58:46;10.10;99.90
21047;DHT22;10682;50.874;3.656;2023-04-01T01:01:23;10.10;99.90
21047;DHT22;10682;50.874;3.656;2023-04-01T01:03:51;10.10;99.90
21047;DHT22;10682;50.874;3.656;2023-04-01T01:09:37;10.10;99.90
21047;DHT22;10682;50.874;3.656;2023-04-01T01:12:25;10.10;99.90
21047;DHT22;10682;50.874;3.656;2023-04-01T01:24:21;10.10;99.90
21047;DHT22;10682;50.874;3.656;2023-04-01T01:32:21;10.00;99.90
21047;DHT22;10682;50.874;3.656;2023-04-01T01:37:45;9.90;99.90
21047;DHT22;10682;50.874;3.656;2023-04-01T01:40:13;9.90;99.90
21047;DHT22;10682;50.874;3.656;2023-04-01T01:42:47;9.90;99.90
21047;DHT22;10682;50.874;3.656;2023-04-01T01:45:19;9.80;99.90
21047;DHT22;10682;50.874;3.656;2023-04-01T01:47:48;9.80;99.90
21047;DHT22;10682;50.874;3.656;2023-04-01T01:50:17;9.80;99.90
21047;DHT22;10682;50.874;3.656;2023-04-01T01:52:45;9.80;99.90
21047;DHT22;10682;50.874;3.656;2023-04-01T01:55:30;9.80;99.90
21047;DHT22;10682;50.874;3.656;2023-04-01T01:58:02;9.80;99.90
21047;DHT22;10682;50.874;3.656;2023-04-01T02:00:36;9.80;99.90
21047;DHT22;10682;50.874;3.656;2023-04-01T02:03:04;9.90;99.90
21047;DHT22;10682;50.874;3.656;2023-04-01T02:05:32;9.80;99.90
21047;DHT22;10682;50.874;3.656;2023-04-01T02:08:05;9.90;99.90
21047;DHT22;10682;50.874;3.656;2023-04-01T02:10:37;9.90;99.90
21047;DHT22;10682;50.874;3.656;2023-04-01T02:13:19;9.90;99.90
21047;DHT22;10682;50.874;3.656;2023-04-01T02:15:53;9.90;99.90
21047;DHT22;10682;50.874;3.656;2023-04-01T02:18:24;9.90;99.90
21047;DHT22;10682;50.874;3.656;2023-04-01T02:20:51;9.90;99.90
21047;DHT22;10682;50.874;3.656;2023-04-01T02:23:19;9.90;99.90
21047;DHT22;10682;50.874;3.656;2023-04-01T02:25:46;9.90;99.90
21047;DHT22;10682;50.874;3.656;2023-04-01T02:28:14;9.90;99.90
21047;DHT22;10682;50.874;3.656;2023-04-01T02:30:47;9.90;99.90
21047;DHT22;10682;50.874;3.656;2023-04-01T02:33:17;9.90;99.90
21047;DHT22;10682;50.874;3.656;2023-04-01T02:35:45;9.90;99.90
21047;DHT22;10682;50.874;3.656;2023-04-01T02:38:13;9.90;99.90
21047;DHT22;10682;50.874;3.656;2023-04-01T02:40:48;9.90;99.90
21047;DHT22;10682;50.874;3.656;2023-04-01T02:43:18;9.90;99.90
21047;DHT22;10682;50.874;3.656;2023-04-01T02:45:46;9.90;99.90
21047;DHT22;10682;50.874;3.656;2023-04-01T02:48:13;9.90;99.90
21047;DHT22;10682;50.874;3.656;2023-04-01T02:50:40;9.90;99.90
21047;DHT22;10682;50.874;3.656;2023-04-01T02:53:07;9.90;99.90
21047;DHT22;10682;50.874;3.656;2023-04-01T02:55:35;9.90;99.90
21047;DHT22;10682;50.874;3.656;2023-04-01T02:58:02;10.00;99.90
21047;DHT22;10682;50.874;3.656;2023-04-01T03:00:29;10.00;99.90
21047;DHT22;10682;50.874;3.656;2023-04-01T03:02:56;9.90;99.90
21047;DHT22;10682;50.874;3.656;2023-04-01T03:05:24;9.90;99.90
21047;DHT22;10682;50.874;3.656;2023-04-01T03:07:51;9.90;99.90
21047;DHT22;10682;50.874;3.656;2023-04-01T03:10:18;9.90;99.90
21047;DHT22;10682;50.874;3.656;2023-04-01T03:12:45;9.90;99.90
21047;DHT22;10682;50.874;3.656;2023-04-01T03:15:13;9.90;99.90
21047;DHT22;10682;50.874;3.656;2023-04-01T03:17:43;10.00;99.90
21047;DHT22;10682;50.874;3.656;2023-04-01T03:20:11;10.00;99.90
21047;DHT22;10682;50.874;3.656;2023-04-01T03:22:39;9.90;99.90
21047;DHT22;10682;50.874;3.656;2023-04-01T03:25:10;10.00;99.90
21047;DHT22;10682;50.874;3.656;2023-04-01T03:27:37;9.90;99.90
21047;DHT22;10682;50.874;3.656;2023-04-01T03:30:05;9.90;99.90
21047;DHT22;10682;50.874;3.656;2023-04-01T03:32:33;9.90;99.90
21047;DHT22;10682;50.874;3.656;2023-04-01T03:35:00;9.90;99.90
21047;DHT22;10682;50.874;3.656;2023-04-01T03:37:27;9.90;99.90
21047;DHT22;10682;50.874;3.656;2023-04-01T03:39:54;9.90;99.90
21047;DHT22;10682;50.874;3.656;2023-04-01T03:42:21;9.90;99.90
21047;DHT22;10682;50.874;3.656;2023-04-01T03:44:48;9.90;99.90
21047;DHT22;10682;50.874;3.656;2023-04-01T03:47:15;9.80;99.90
21047;DHT22;10682;50.874;3.656;2023-04-01T03:49:42;9.80;99.90
21047;DHT22;10682;50.874;3.656;2023-04-01T03:52:10;9.80;99.90
21047;DHT22;10682;50.874;3.656;2023-04-01T03:54:37;9.80;99.90
21047;DHT22;10682;50.874;3.656;2023-04-01T03:57:05;9.80;99.90
21047;DHT22;10682;50.874;3.656;2023-04-01T03:59:33;9.80;99.90
21047;DHT22;10682;50.874;3.656;2023-04-01T04:02:00;9.70;99.90
21047;DHT22;10682;50.874;3.656;2023-04-01T04:04:27;9.70;99.90
21047;DHT22;10682;50.874;3.656;2023-04-01T04:06:54;9.70;99.90
21047;DHT22;10682;50.874;3.656;2023-04-01T04:09:22;9.70;99.90
21047;DHT22;10682;50.874;3.656;2023-04-01T04:11:49;9.70;99.90
21047;DHT22;10682;50.874;3.656;2023-04-01T04:14:17;9.70;99.90
21047;DHT22;10682;50.874;3.656;2023-04-01T04:16:44;9.70;99.90
21047;DHT22;10682;50.874;3.656;2023-04-01T04:19:11;9.60;99.90
21047;DHT22;10682;50.874;3.656;2023-04-01T04:21:40;9.60;99.90
21047;DHT22;10682;50.874;3.656;2023-04-01T04:24:08;9.60;99.90
21047;DHT22;10682;50.874;3.656;2023-04-01T04:26:36;9.60;99.90
21047;DHT22;10682;50.874;3.656;2023-04-01T04:29:03;9.60;99.90
21047;DHT22;10682;50.874;3.656;2023-04-01T04:31:30;9.60;99.90
21047;DHT22;10682;50.874;3.656;2023-04-01T04:33:59;9.60;99.90
21047;DHT22;10682;50.874;3.656;2023-04-01T04:36:27;9.60;99.90
21047;DHT22;10682;50.874;3.656;2023-04-01T04:38:54;9.60;99.90
21047;DHT22;10682;50.874;3.656;2023-04-01T04:41:21;9.50;99.90
21047;DHT22;10682;50.874;3.656;2023-04-01T04:43:54;9.50;99.90
21047;DHT22;10682;50.874;3.656;2023-04-01T04:46:23;9.60;99.90
21047;DHT22;10682;50.874;3.656;2023-04-01T04:48:50;9.60;99.90
21047;DHT22;10682;50.874;3.656;2023-04-01T04:51:19;9.50;99.90
21047;DHT22;10682;50.874;3.656;2023-04-01T04:53:47;9.60;99.90
21047;DHT22;10682;50.874;3.656;2023-04-01T04:56:21;9.50;99.90
21047;DHT22;10682;50.874;3.656;2023-04-01T04:58:49;9.60;99.90
21047;DHT22;10682;50.874;3.656;2023-04-01T05:01:17;9.50;99.90
21047;DHT22;10682;50.874;3.656;2023-04-01T05:03:45;9.60;99.90
21047;DHT22;10682;50.874;3.656;2023-04-01T05:06:14;9.50;99.90
21047;DHT22;10682;50.874;3.656;2023-04-01T05:08:44;9.50;99.90
21047;DHT22;10682;50.874;3.656;2023-04-01T05:11:18;9.50;99.90
21047;DHT22;10682;50.874;3.656;2023-04-01T05:13:45;9.50;99.90
21047;DHT22;10682;50.874;3.656;2023-04-01T05:16:16;9.50;99.90
21047;DHT22;10682;50.874;3.656;2023-04-01T05:18:44;9.50;99.90
21047;DHT22;10682;50.874;3.656;2023-04-01T05:21:13;9.50;99.90
21047;DHT22;10682;50.874;3.656;2023-04-01T05:23:41;9.50;99.90
21047;DHT22;10682;50.874;3.656;2023-04-01T05:26:12;9.50;99.90
21047;DHT22;10682;50.874;3.656;2023-04-01T05:28:41;9.60;99.90
21047;DHT22;10682;50.874;3.656;2023-04-01T05:31:08;9.50;99.90
21047;DHT22;10682;50.874;3.656;2023-04-01T05:33:35;9.60;99.90
21047;DHT22;10682;50.874;3.656;2023-04-01T05:38:35;9.50;99.90
21047;DHT22;10682;50.874;3.656;2023-04-01T05:41:03;9.50;99.90
21047;DHT22;10682;50.874;3.656;2023-04-01T05:43:30;9.50;99.90
21047;DHT22;10682;50.874;3.656;2023-04-01T05:45:58;9.50;99.90
21047;DHT22;10682;50.874;3.656;2023-04-01T05:48:25;9.50;99.90
21047;DHT22;10682;50.874;3.656;2023-04-01T05:50:52;9.50;99.90
21047;DHT22;10682;50.874;3.656;2023-04-01T05:53:19;9.50;99.90
21047;DHT22;10682;50.874;3.656;2023-04-01T05:55:46;9.50;99.90
21047;DHT22;10682;50.874;3.656;2023-04-01T05:58:13;9.60;99.90
21047;DHT22;10682;50.874;3.656;2023-04-01T06:00:40;9.60;99.90
21047;DHT22;10682;50.874;3.656;2023-04-01T06:03:07;9.60;99.90
21047;DHT22;10682;50.874;3.656;2023-04-01T06:05:43;9.50;99.90
21047;DHT22;10682;50.874;3.656;2023-04-01T06:08:16;9.50;99.90
21047;DHT22;10682;50.874;3.656;2023-04-01T06:19:32;9.70;99.90
21047;DHT22;10682;50.874;3.656;2023-04-01T06:31:51;9.60;99.90
21047;DHT22;10682;50.874;3.656;2023-04-01T06:44:29;9.60;99.90
21047;DHT22;10682;50.874;3.656;2023-04-01T06:50:15;9.50;99.90
21047;DHT22;10682;50.874;3.656;2023-04-01T06:53:12;9.50;99.90
21047;DHT22;10682;50.874;3.656;2023-04-01T06:55:55;9.60;99.90
21047;DHT22;10682;50.874;3.656;2023-04-01T06:58:36;9.60;99.90
21047;DHT22;10682;50.874;3.656;2023-04-01T07:01:16;9.60;99.90
21047;DHT22;10682;50.874;3.656;2023-04-01T07:03:58;9.70;99.90
21047;DHT22;10682;50.874;3.656;2023-04-01T07:06:32;9.70;99.90
21047;DHT22;10682;50.874;3.656;2023-04-01T07:09:06;9.70;99.90
21047;DHT22;10682;50.874;3.656;2023-04-01T07:11:38;9.70;99.90
21047;DHT22;10682;50.874;3.656;2023-04-01T07:14:16;9.60;99.90
21047;DHT22;10682;50.874;3.656;2023-04-01T07:16:58;9.70;99.90
21047;DHT22;10682;50.874;3.656;2023-04-01T07:19:39;9.70;99.90
21047;DHT22;10682;50.874;3.656;2023-04-01T07:22:31;9.60;99.90
21047;DHT22;10682;50.874;3.656;2023-04-01T07:25:07;9.60;99.90
21047;DHT22;10682;50.874;3.656;2023-04-01T07:27:39;9.60;99.90
21047;DHT22;10682;50.874;3.656;2023-04-01T07:30:20;9.70;99.90
21047;DHT22;10682;50.874;3.656;2023-04-01T07:33:08;9.50;99.90
21047;DHT22;10682;50.874;3.656;2023-04-01T07:44:48;9.70;99.90
21047;DHT22;10682;50.874;3.656;2023-04-01T07:50:18;9.70;99.90
21047;DHT22;10682;50.874;3.656;2023-04-01T08:10:18;9.90;99.90
21047;DHT22;10682;50.874;3.656;2023-04-01T08:16:39;9.80;99.90
21047;DHT22;10682;50.874;3.656;2023-04-01T08:21:55;9.80;99.90
21047;DHT22;10682;50.874;3.656;2023-04-01T08:24:45;9.80;99.90
21047;DHT22;10682;50.874;3.656;2023-04-01T08:30:49;9.90;99.90
21047;DHT22;10682;50.874;3.656;2023-04-01T08:47:41;10.10;99.90
21047;DHT22;10682;50.874;3.656;2023-04-01T08:53:50;10.20;99.90
21047;DHT22;10682;50.874;3.656;2023-04-01T08:59:30;10.30;99.90
21047;DHT22;10682;50.874;3.656;2023-04-01T09:05:17;10.40;99.90
21047;DHT22;10682;50.874;3.656;2023-04-01T09:31:14;10.30;99.90
21047;DHT22;10682;50.874;3.656;2023-04-01T09:40:30;10.30;99.90
21047;DHT22;10682;50.874;3.656;2023-04-01T10:01:42;10.60;99.90
21047;DHT22;10682;50.874;3.656;2023-04-01T10:14:28;10.60;99.90
21047;DHT22;10682;50.874;3.656;2023-04-01T10:28:29;10.80;99.90
21047;DHT22;10682;50.874;3.656;2023-04-01T10:34:44;10.60;99.90
21047;DHT22;10682;50.874;3.656;2023-04-01T10:40:36;10.80;99.90
21047;DHT22;10682;50.874;3.656;2023-04-01T10:43:33;10.90;99.90
21047;DHT22;10682;50.874;3.656;2023-04-01T11:22:10;10.00;99.90
21047;DHT22;10682;50.874;3.656;2023-04-01T11:39:15;9.90;99.90
21047;DHT22;10682;50.874;3.656;2023-04-01T11:51:53;10.00;99.90
21047;DHT22;10682;50.874;3.656;2023-04-01T12:03:10;10.10;99.90
21047;DHT22;10682;50.874;3.656;2023-04-01T12:06:05;10.10;99.90
21047;DHT22;10682;50.874;3.656;2023-04-01T12:14:43;10.10;99.90
21047;DHT22;10682;50.874;3.656;2023-04-01T12:17:27;10.20;99.90
21047;DHT22;10682;50.874;3.656;2023-04-01T12:23:02;10.20;99.90
21047;DHT22;10682;50.874;3.656;2023-04-01T12:25:49;10.20;99.90
21047;DHT22;10682;50.874;3.656;2023-04-01T12:29:06;10.20;99.90
21047;DHT22;10682;50.874;3.656;2023-04-01T12:32:18;10.20;99.90
21047;DHT22;10682;50.874;3.656;2023-04-01T12:37:52;10.30;99.90
21047;DHT22;10682;50.874;3.656;2023-04-01T12:55:42;10.30;99.90
21047;DHT22;10682;50.874;3.656;2023-04-01T13:07:49;10.60;99.90
21047;DHT22;10682;50.874;3.656;2023-04-01T13:10:35;10.60;99.90
21047;DHT22;10682;50.874;3.656;2023-04-01T13:13:41;10.60;99.90
21047;DHT22;10682;50.874;3.656;2023-04-01T13:28:23;10.00;99.90
21047;DHT22;10682;50.874;3.656;2023-04-01T13:33:47;9.90;99.90
21047;DHT22;10682;50.874;3.656;2023-04-01T13:42:25;10.00;99.90
21047;DHT22;10682;50.874;3.656;2023-04-01T13:45:15;10.20;99.90
21047;DHT22;10682;50.874;3.656;2023-04-01T13:47:57;10.10;99.90
21047;DHT22;10682;50.874;3.656;2023-04-01T13:59:32;9.70;99.90
21047;DHT22;10682;50.874;3.656;2023-04-01T14:11:25;9.70;99.90
21047;DHT22;10682;50.874;3.656;2023-04-01T14:20:37;9.60;99.90
21047;DHT22;10682;50.874;3.656;2023-04-01T14:23:33;9.60;99.90
21047;DHT22;10682;50.874;3.656;2023-04-01T14:29:29;9.70;99.90
21047;DHT22;10682;50.874;3.656;2023-04-01T14:54:14;9.60;99.90
21047;DHT22;10682;50.874;3.656;2023-04-01T14:57:14;9.60;99.90
21047;DHT22;10682;50.874;3.656;2023-04-01T14:59:54;9.60;99.90
21047;DHT22;10682;50.874;3.656;2023-04-01T15:06:19;9.70;99.90
21047;DHT22;10682;50.874;3.656;2023-04-01T15:18:07;9.70;99.90
21047;DHT22;10682;50.874;3.656;2023-04-01T15:32:46;9.70;99.90
21047;DHT22;10682;50.874;3.656;2023-04-01T15:40:47;9.50;99.90
21047;DHT22;10682;50.874;3.656;2023-04-01T15:43:58;9.40;99.90
21047;DHT22;10682;50.874;3.656;2023-04-01T15:46:51;9.40;99.90
21047;DHT22;10682;50.874;3.656;2023-04-01T15:49:46;9.60;99.90
21047;DHT22;10682;50.874;3.656;2023-04-01T16:00:29;9.50;99.90
21047;DHT22;10682;50.874;3.656;2023-04-01T16:06:39;9.60;99.90
21047;DHT22;10682;50.874;3.656;2023-04-01T16:10:17;9.60;99.90
21047;DHT22;10682;50.874;3.656;2023-04-01T16:16:00;9.50;99.90
21047;DHT22;10682;50.874;3.656;2023-04-01T16:23:56;9.50;99.90
21047;DHT22;10682;50.874;3.656;2023-04-01T16:27:09;9.50;99.90
21047;DHT22;10682;50.874;3.656;2023-04-01T16:38:40;9.40;99.90
21047;DHT22;10682;50.874;3.656;2023-04-01T16:41:20;9.40;99.90
21047;DHT22;10682;50.874;3.656;2023-04-01T16:44:17;9.30;99.90
21047;DHT22;10682;50.874;3.656;2023-04-01T16:52:46;9.30;99.90
21047;DHT22;10682;50.874;3.656;2023-04-01T16:55:34;9.30;99.90
21047;DHT22;10682;50.874;3.656;2023-04-01T16:58:02;9.30;99.90
21047;DHT22;10682;50.874;3.656;2023-04-01T17:00:37;9.30;99.90
21047;DHT22;10682;50.874;3.656;2023-04-01T17:25:47;9.20;99.90
21047;DHT22;10682;50.874;3.656;2023-04-01T17:28:52;9.20;99.90
21047;DHT22;10682;50.874;3.656;2023-04-01T17:38:02;9.20;99.90
21047;DHT22;10682;50.874;3.656;2023-04-01T17:40:53;9.20;99.90
21047;DHT22;10682;50.874;3.656;2023-04-01T17:58:17;9.10;99.90
21047;DHT22;10682;50.874;3.656;2023-04-01T18:12:16;9.10;99.90
21047;DHT22;10682;50.874;3.656;2023-04-01T18:15:21;9.10;99.90
21047;DHT22;10682;50.874;3.656;2023-04-01T18:23:59;9.10;99.90
21047;DHT22;10682;50.874;3.656;2023-04-01T18:26:33;9.10;99.90
21047;DHT22;10682;50.874;3.656;2023-04-01T18:35:17;9.10;99.90
21047;DHT22;10682;50.874;3.656;2023-04-01T18:38:12;9.00;99.90
21047;DHT22;10682;50.874;3.656;2023-04-01T18:43:39;8.90;99.90
21047;DHT22;10682;50.874;3.656;2023-04-01T18:49:08;9.00;99.90
21047;DHT22;10682;50.874;3.656;2023-04-01T18:51:49;8.90;99.90
21047;DHT22;10682;50.874;3.656;2023-04-01T18:54:33;8.90;99.90
21047;DHT22;10682;50.874;3.656;2023-04-01T18:57:18;8.80;99.90
21047;DHT22;10682;50.874;3.656;2023-04-01T19:05:45;8.80;99.90
21047;DHT22;10682;50.874;3.656;2023-04-01T19:08:19;8.80;99.90
21047;DHT22;10682;50.874;3.656;2023-04-01T19:22:01;8.70;99.90
21047;DHT22;10682;50.874;3.656;2023-04-01T19:27:58;8.70;99.90
21047;DHT22;10682;50.874;3.656;2023-04-01T19:31:02;8.70;99.90
21047;DHT22;10682;50.874;3.656;2023-04-01T19:34:04;8.80;99.90
21047;DHT22;10682;50.874;3.656;2023-04-01T19:39:49;8.80;99.90
21047;DHT22;10682;50.874;3.656;2023-04-01T19:47:52;8.70;99.90
21047;DHT22;10682;50.874;3.656;2023-04-01T19:50:55;8.70;99.90
21047;DHT22;10682;50.874;3.656;2023-04-01T19:53:46;8.70;99.90
21047;DHT22;10682;50.874;3.656;2023-04-01T19:56:20;8.70;99.90
21047;DHT22;10682;50.874;3.656;2023-04-01T20:01:52;8.70;99.90
21047;DHT22;10682;50.874;3.656;2023-04-01T20:13:21;8.70;99.90
21047;DHT22;10682;50.874;3.656;2023-04-01T20:16:08;8.70;99.90
21047;DHT22;10682;50.874;3.656;2023-04-01T20:18:48;8.70;99.90
21047;DHT22;10682;50.874;3.656;2023-04-01T20:21:28;8.70;99.90
21047;DHT22;10682;50.874;3.656;2023-04-01T20:24:21;8.70;99.90
21047;DHT22;10682;50.874;3.656;2023-04-01T20:27:31;8.70;99.90
21047;DHT22;10682;50.874;3.656;2023-04-01T20:51:23;8.70;99.90
21047;DHT22;10682;50.874;3.656;2023-04-01T20:57:19;8.70;99.90
21047;DHT22;10682;50.874;3.656;2023-04-01T21:17:53;8.70;99.90
21047;DHT22;10682;50.874;3.656;2023-04-01T21:29:33;8.70;99.90
21047;DHT22;10682;50.874;3.656;2023-04-01T21:41:28;8.70;99.90
21047;DHT22;10682;50.874;3.656;2023-04-01T21:49:55;8.60;99.90
21047;DHT22;10682;50.874;3.656;2023-04-01T22:04:23;8.60;99.90
21047;DHT22;10682;50.874;3.656;2023-04-01T22:07:19;8.60;99.90
21047;DHT22;10682;50.874;3.656;2023-04-01T22:18:33;8.60;99.90
21047;DHT22;10682;50.874;3.656;2023-04-01T22:24:11;8.60;99.90
21047;DHT22;10682;50.874;3.656;2023-04-01T22:30:06;8.60;99.90
21047;DHT22;10682;50.874;3.656;2023-04-01T22:32:46;8.60;99.90
21047;DHT22;10682;50.874;3.656;2023-04-01T22:35:27;8.50;99.90
21047;DHT22;10682;50.874;3.656;2023-04-01T22:38:27;8.60;99.90
21047;DHT22;10682;50.874;3.656;2023-04-01T22:54:04;8.60;99.90
21047;DHT22;10682;50.874;3.656;2023-04-01T22:56:45;8.60;99.90
21047;DHT22;10682;50.874;3.656;2023-04-01T22:59:37;8.60;99.90
21047;DHT22;10682;50.874;3.656;2023-04-01T23:02:39;8.60;99.90
21047;DHT22;10682;50.874;3.656;2023-04-01T23:05:11;8.60;99.90
21047;DHT22;10682;50.874;3.656;2023-04-01T23:10:57;8.60;99.90
21047;DHT22;10682;50.874;3.656;2023-04-01T23:13:47;8.60;99.90
21047;DHT22;10682;50.874;3.656;2023-04-01T23:16:40;8.60;99.90
21047;DHT22;10682;50.874;3.656;2023-04-01T23:19:46;8.60;99.90
21047;DHT22;10682;50.874;3.656;2023-04-01T23:22:29;8.60;99.90
21047;DHT22;10682;50.874;3.656;2023-04-01T23:25:14;8.60;99.90
21047;DHT22;10682;50.874;3.656;2023-04-01T23:27:53;8.60;99.90
21047;DHT22;10682;50.874;3.656;2023-04-01T23:36:11;8.60;99.90
21047;DHT22;10682;50.874;3.656;2023-04-01T23:38:41;8.60;99.90
21047;DHT22;10682;50.874;3.656;2023-04-01T23:41:27;8.60;99.90
21047;DHT22;10682;50.874;3.656;2023-04-01T23:44:25;8.60;99.90
21047;DHT22;10682;50.874;3.656;2023-04-01T23:46:53;8.60;99.90
21047;DHT22;10682;50.874;3.656;2023-04-01T23:49:25;8.60;99.90
21047;DHT22;10682;50.874;3.656;2023-04-01T23:52:09;8.60;99.90
21047;DHT22;10682;50.874;3.656;2023-04-01T23:54:47;8.60;99.90
21047;DHT22;10682;50.874;3.656;2023-04-01T23:57:22;8.60;99.90
